• Join FlightAware (Why Join?)
  • Login
  • US Flag 
01:34AM EDT


 

Airport Tracker/Info


-or-


 

Live Flight TrackerFlight Track Log ✈ JIA2342 ✈ 25-Jul-2013 ✈ KDCA - KALB

Flight Track Log - Related Links

Times and Time Zones

All times are in EDT time to prevent confusion due to time zone crossing. See the JIA2342 flight status page for this flight to view local times or setup timezone preferences in your user account.

Time Position Orientation Groundspeed Altitude Reporting Facility
EDT Latitude Longitude Course Direction KTS MPH feet Rate Location/Type
08:57PM 38.8833 -77.0667 90° East 179 206 1,900  Level Potomac TRACON
08:59PM 38.9782 -76.6602 57° Northeast  Level FlightAware Approximate
08:59PM 38.9967 -77.1808 322° Northwest 256 295 6,800  Level Washington Center
09:00PM 39.0271 -76.5355 67° East  Level FlightAware Approximate
09:00PM 39.0581 -77.1206 37° Northeast 230 265 9,400  Level Washington Center
09:01PM 39.0764 -76.4106 61° Northeast  Level FlightAware Approximate
09:01PM 39.0697 -77.0086 82° East 212 244 11,000  Level Washington Center
09:02PM 39.1167 -76.2837 90° East  Level FlightAware Approximate
09:02PM 39.0814 -76.8886 83° East 282 325 12,800  Level Washington Center
09:03PM 39.0953 -76.7711 81° East 308 354 14,700 1,320 Climbing Washington Center
09:04PM 39.1067 -76.6456 83° East 330 380 15,600 1,140 Climbing Washington Center
09:05PM 39.1203 -76.5228 82° East 346 398 17,000 1,140 Climbing Washington Center
09:06PM 39.1336 -76.3944 82° East 351 404 17,900 1,200 Climbing Washington Center
09:07PM 39.1469 -76.2686 82° East 351 404 19,400 1,380 Climbing Washington Center
09:08PM 39.1644 -76.1244 81° East 358 412 20,800 1,260 Climbing Washington Center
09:09PM 39.1794 -75.9906 82° East 364 419 21,900 1,080 Climbing Washington Center
09:10PM 39.2089 -75.8594 74° East 374 430 23,000 960 Climbing Washington Center
09:11PM 39.2864 -75.7606 45° Northeast 373 429 23,900 780 Climbing Washington Center
09:13PM 39.4297 -75.5794 44° Northeast 430 495 25,300 720 Climbing New York Center
09:14PM 39.5111 -75.4719 46° Northeast 418 481 26,000 660 Climbing New York Center
09:15PM 39.5925 -75.3669 45° Northeast 413 475 26,700 660 Climbing New York Center
09:16PM 39.6739 -75.2561 46° Northeast 413 475 27,400 660 Climbing New York Center
09:17PM 39.7664 -75.1217 48° Northeast 422 486 28,100 600 Climbing New York Center
09:18PM 39.8458 -75.0050 48° Northeast 429 494 28,600 420 Climbing New York Center
09:19PM 39.9333 -74.8858 46° Northeast 435 501 29,000 180 Climbing New York Center
09:20PM 40.0206 -74.7744 44° Northeast 441 507 29,000  Level New York Center
09:21PM 40.1075 -74.6736 42° Northeast 452 520 29,000 -120 Level New York Center
09:22PM 40.2133 -74.5517 41° Northeast 458 527 28,800 -660 Descending New York Center
09:23PM 40.3153 -74.4294 42° Northeast 468 539 27,700 -1,080 Descending New York Center
09:24PM 40.4125 -74.3147 42° Northeast 468 539 26,700 -1,020 Descending New York Center
09:25PM 40.5033 -74.2047 43° Northeast 462 532 25,700 -1,080 Descending New York Center
09:26PM 40.6511 -74.0239 43° Northeast 457 526 24,000 -660 Descending Boston Center
09:27PM 40.7336 -73.9356 39° Northeast 432 497 24,000 -60 Level Boston Center
09:28PM 40.8183 -73.8333 42° Northeast 419 482 23,900  Descending Boston Center
09:29PM 40.8881 -73.7497 42° Northeast 419 482 24,000 -300 Climbing Boston Center
09:30PM 41.0039 -73.6503 33° Northeast 419 482 23,400 -600 Descending Boston Center
09:31PM 41.1244 -73.6692 353° North 418 481 22,900 -300 Descending Boston Center
09:32PM 41.2494 -73.6797 356° North 424 488 22,800 -660 Descending Boston Center
09:33PM 41.3681 -73.6903 356° North 430 495 21,500 -1,740 Descending Boston Center
09:34PM 41.4972 -73.7011 356° North 409 471 19,100 -2,340 Descending Boston Center
09:35PM 41.6139 -73.7089 357° North 383 441 16,900 -1,920 Descending Boston Center
09:36PM 41.7033 -73.7164 356° North 364 419 15,300 -1,620 Descending Boston Center
09:37PM 41.8053 -73.7267 356° North 342 394 13,700 -1,500 Descending Boston Center
09:38PM 41.8928 -73.7342 356° North 342 394 12,500 -1,260 Descending Boston Center
09:39PM 41.9886 -73.7417 357° North 343 395 11,300 -720 Descending Boston Center
09:40PM 42.0761 -73.7492 356° North 332 382 11,000 -120 Descending Boston Center
09:41PM 42.1675 -73.7594 355° North 310 357 11,100 -720 Climbing Boston Center
09:43PM 42.2592 -73.7697 355° North 280 322 9,500 -1,620 Descending Boston Center
09:44PM 42.3361 -73.7797 355° North 278 320 7,600 -1,860 Descending Boston Center
09:45PM 42.4133 -73.7842 358° North 278 320 5,800 -1,860 Descending Boston Center
09:46PM 42.4883 -73.7944 354° North 268 308 3,900 -1,500 Descending Boston Center
09:47PM 42.5528 -73.7958 359° North 254 292 3,000 -660 Descending Boston Center
09:48PM 42.6089 -73.8025 355° North 194 223 2,700 -300 Descending Boston Center